Etusivu
METAR-TAF:

METAR-TAF

Lentoasemat :

Chugiak, Alaska, Yhdysvallat

Leveyspiiri: 61-25N, Pituuspiiri: 149-31W, korkeus merenpinnasta: 29 m

Tämänhetkinen sää

Tämä raportti tehtiin 1 tunti ja 0 minuuttia sitten, kello 02.56 UTC
tyyntä
Lämpötila 13°C
Kosteus 88%
Ilmanpaine 999 hPa
Näkyvyys: 16.1 km
Hajonneita pilviä 800 ft:n korkeudessa
Hajonneita pilviä 6000 ft:n korkeudessa
Pilvistä 8500 ft:n korkeudessa
heikkoa sadetta

METAR: PABV 140256Z AUTO 00000KT 10SM -RA BKN008 BKN060 OVC085 13/11 A2950 RMK AO2 SLP990 P0002 60006 T01280111 56013

Aika: 19:56 (03:56 UTC)


TAF: puuttuu

Säähavainnot ja -ennusteet yli 4000 lentoasemalta (METAR- ja TAF-raportit).

Käytössä olevat sääasemat on merkitty karttaan keltaisilla ja punaisilla pisteillä.

Aseta hiiri pisteen päälle nähdäksesi sääaseman nimen.

Klikkaa sitten nähdäksesi säähavainnot ja -ennusteet.

Kartan vaihtaminen: klikkaa mustalla rastilla varustettuja vihreitä pisteitä, niin voit zoomata sisään; viivalla varustettua vihreää pistettä, niin voit zoomata ulos tai vihreitä nuolia, niin pääset viereisille kartoille.


METAR-TAF: